createdAt,value
2023-04-08T00:02:20.774Z,80.06
2023-04-08T00:04:53.334Z,79.49
2023-04-08T00:07:23.162Z,79.83
2023-04-08T00:09:53.096Z,80.25
2023-04-08T00:12:22.857Z,79.77
2023-04-08T00:14:52.595Z,79.59
2023-04-08T00:17:22.344Z,79.57
2023-04-08T00:19:55.514Z,79.22
2023-04-08T00:22:26.132Z,79.53
2023-04-08T00:24:55.917Z,79.67
2023-04-08T00:27:25.978Z,80.24
2023-04-08T00:29:55.767Z,80.28
2023-04-08T00:32:25.505Z,80.30
2023-04-08T00:34:58.465Z,80.45
2023-04-08T00:37:28.217Z,80.17
2023-04-08T00:39:57.915Z,80.32
2023-04-08T00:42:27.786Z,80.51
2023-04-08T00:44:57.618Z,81.02
2023-04-08T00:47:27.681Z,80.72
2023-04-08T00:50:00.527Z,79.86
2023-04-08T00:52:30.560Z,80.14
2023-04-08T00:55:00.391Z,80.16
2023-04-08T00:57:30.312Z,79.80
2023-04-08T01:00:00.072Z,80.13
2023-04-08T01:02:37.526Z,80.91
2023-04-08T01:05:14.157Z,80.50
2023-04-08T01:07:49.616Z,80.79
2023-04-08T01:10:25.027Z,80.84
2023-04-08T01:12:58.082Z,81.60
2023-04-08T01:15:29.755Z,82.40
2023-04-08T01:18:02.345Z,82.96
2023-04-08T01:20:35.244Z,82.93
2023-04-08T01:23:22.819Z,83.49
2023-04-08T01:25:56.469Z,84.08
2023-04-08T01:28:32.116Z,85.06
2023-04-08T01:31:05.019Z,84.40
2023-04-08T01:33:35.737Z,84.35
2023-04-08T01:36:06.444Z,84.97
2023-04-08T01:38:42.278Z,85.41
2023-04-08T01:41:14.894Z,84.80
2023-04-08T01:43:47.178Z,84.66
2023-04-08T01:46:18.085Z,84.83
2023-04-08T01:48:49.096Z,84.43
2023-04-08T01:51:20.217Z,85.18
2023-04-08T01:53:49.955Z,85.11
2023-04-08T01:56:25.071Z,85.29
2023-04-08T01:58:57.585Z,85.91
2023-04-08T02:01:30.029Z,86.43
2023-04-08T02:04:02.237Z,85.19
2023-04-08T02:06:33.236Z,85.69
2023-04-08T02:09:04.406Z,85.89
2023-04-08T02:11:36.731Z,85.84
2023-04-08T02:14:06.688Z,85.92
2023-04-08T02:16:43.398Z,86.14
2023-04-08T02:19:17.514Z,86.38
2023-04-08T02:21:50.863Z,87.31
2023-04-08T02:24:21.868Z,86.96
2023-04-08T02:26:55.978Z,87.33
2023-04-08T02:29:28.041Z,86.90
2023-04-08T02:31:58.960Z,86.43
2023-04-08T02:34:29.404Z,85.68
2023-04-08T02:36:59.328Z,86.14
2023-04-08T02:39:34.146Z,86.09
2023-04-08T02:42:07.075Z,86.64
2023-04-08T02:44:36.888Z,87.11
2023-04-08T02:47:06.672Z,86.52
2023-04-08T02:49:38.316Z,86.05
2023-04-08T02:52:08.245Z,85.80
2023-04-08T02:54:38.036Z,86.28
2023-04-08T02:57:10.382Z,85.72
2023-04-08T02:59:41.078Z,85.86
2023-04-08T03:02:11.008Z,85.52
2023-04-08T03:04:40.776Z,85.99
2023-04-08T03:07:10.499Z,85.59
2023-04-08T03:09:40.459Z,85.88
2023-04-08T03:12:12.899Z,85.75
2023-04-08T03:14:42.625Z,85.51
2023-04-08T03:17:12.455Z,85.73
2023-04-08T03:19:42.205Z,85.78
2023-04-08T03:22:12.607Z,85.61
2023-04-08T03:24:42.454Z,85.72
2023-04-08T03:27:15.743Z,86.09
2023-04-08T03:29:46.756Z,86.01
2023-04-08T03:32:16.810Z,86.56
2023-04-08T03:34:46.527Z,86.42
2023-04-08T03:37:16.503Z,86.34
2023-04-08T03:39:46.604Z,86.44
2023-04-08T03:42:19.025Z,86.33
2023-04-08T03:44:48.771Z,86.60
2023-04-08T03:47:18.506Z,86.09
2023-04-08T03:49:48.296Z,86.50
2023-04-08T03:52:18.011Z,86.89
2023-04-08T03:54:47.722Z,86.70
2023-04-08T03:57:20.002Z,86.97
2023-04-08T03:59:49.735Z,86.73
2023-04-08T04:02:19.675Z,86.44
2023-04-08T04:04:49.528Z,86.89
2023-04-08T04:07:19.271Z,86.98
2023-04-08T04:09:49.059Z,86.89
2023-04-08T04:12:21.784Z,86.93
2023-04-08T04:14:51.789Z,86.66
2023-04-08T04:17:21.663Z,87.00
2023-04-08T04:19:51.423Z,87.80
2023-04-08T04:22:21.306Z,87.88
2023-04-08T04:24:51.688Z,88.37
2023-04-08T04:27:23.995Z,88.84
2023-04-08T04:29:53.773Z,89.42
2023-04-08T04:32:23.561Z,90.08
2023-04-08T04:34:53.316Z,90.47
2023-04-08T04:37:23.313Z,91.10
2023-04-08T04:39:53.012Z,90.96
2023-04-08T04:42:25.607Z,91.79
2023-04-08T04:44:55.329Z,91.87
2023-04-08T04:47:25.167Z,91.71
2023-04-08T04:49:55.557Z,91.92
2023-04-08T04:52:25.276Z,91.93
2023-04-08T04:54:54.992Z,92.09
2023-04-08T04:57:27.505Z,91.93
2023-04-08T04:59:57.245Z,91.63
2023-04-08T05:02:27.158Z,91.80
2023-04-08T05:04:57.067Z,91.46
2023-04-08T05:07:26.878Z,91.38
2023-04-08T05:09:57.025Z,90.42
2023-04-08T05:12:29.817Z,90.04
2023-04-08T05:15:02.397Z,90.85
2023-04-08T05:17:32.161Z,90.17
2023-04-08T05:20:01.944Z,89.98
2023-04-08T05:22:31.734Z,90.94
2023-04-08T05:25:01.590Z,91.03
2023-04-08T05:27:33.903Z,90.89
2023-04-08T05:30:04.409Z,91.54
2023-04-08T05:32:34.168Z,91.31
2023-04-08T05:35:05.403Z,91.54
2023-04-08T05:37:35.077Z,92.32
2023-04-08T05:40:04.902Z,92.53
2023-04-08T05:42:37.212Z,91.90
2023-04-08T05:45:07.806Z,92.40
2023-04-08T05:47:37.593Z,92.02
2023-04-08T05:50:08.186Z,92.83
2023-04-08T05:52:37.920Z,92.80
2023-04-08T05:55:09.126Z,93.65
2023-04-08T05:57:41.453Z,93.35
2023-04-08T06:00:13.364Z,93.72
2023-04-08T06:02:43.358Z,93.34
2023-04-08T06:05:13.453Z,94.01
2023-04-08T06:07:43.180Z,94.45
2023-04-08T06:10:13.546Z,94.59
2023-04-08T06:12:45.911Z,93.96
2023-04-08T06:15:16.842Z,95.02
2023-04-08T06:17:46.634Z,94.56
2023-04-08T06:20:16.366Z,95.23
2023-04-08T06:22:46.386Z,95.96
2023-04-08T06:25:16.153Z,97.01
2023-04-08T06:27:48.628Z,97.14
2023-04-08T06:30:19.145Z,97.02
2023-04-08T06:32:49.881Z,97.42
2023-04-08T06:35:19.723Z,97.76
2023-04-08T06:37:49.456Z,97.32
2023-04-08T06:40:19.462Z,96.37
2023-04-08T06:42:51.795Z,96.06
2023-04-08T06:45:35.758Z,95.97
2023-04-08T06:48:06.959Z,96.58
2023-04-08T06:50:36.794Z,96.65
2023-04-08T06:53:06.556Z,96.69
2023-04-08T06:55:36.367Z,96.73
2023-04-08T06:58:08.708Z,96.27
2023-04-08T07:00:38.825Z,97.64
2023-04-08T07:03:08.640Z,99.23
2023-04-08T07:05:39.697Z,99.57
2023-04-08T07:08:09.554Z,100.00
2023-04-08T07:10:39.392Z,100.00
2023-04-08T07:13:11.749Z,99.68
2023-04-08T07:15:41.556Z,99.23
2023-04-08T07:18:12.327Z,99.17
2023-04-08T07:20:42.245Z,98.61
2023-04-08T07:23:12.711Z,98.70
2023-04-08T07:25:42.758Z,98.04
2023-04-08T07:28:15.085Z,98.89
2023-04-08T07:30:44.893Z,99.12
2023-04-08T07:33:15.881Z,99.01
2023-04-08T07:35:45.875Z,98.60
2023-04-08T07:38:15.868Z,98.76
2023-04-08T07:40:45.884Z,97.94
2023-04-08T07:43:18.228Z,97.43
2023-04-08T07:45:48.033Z,96.92
2023-04-08T07:48:17.903Z,97.57
2023-04-08T07:51:09.227Z,97.35
2023-04-08T07:53:37.901Z,97.52
2023-04-08T07:56:14.281Z,97.67
2023-04-08T07:58:46.974Z,97.89
2023-04-08T08:01:21.953Z,97.26
2023-04-08T08:03:52.882Z,96.83
2023-04-08T08:06:23.534Z,96.26
2023-04-08T08:08:53.308Z,95.46
2023-04-08T08:11:23.068Z,95.75
2023-04-08T08:13:55.614Z,96.30
2023-04-08T08:16:27.570Z,96.99
2023-04-08T08:18:57.365Z,96.53
2023-04-08T08:21:27.302Z,96.31
2023-04-08T08:23:57.448Z,95.72
2023-04-08T08:26:27.551Z,95.02
2023-04-08T08:28:59.947Z,94.70
2023-04-08T08:31:29.852Z,94.86
2023-04-08T08:34:00.263Z,94.30
2023-04-08T08:36:34.633Z,93.94
2023-04-08T08:39:05.472Z,92.99
2023-04-08T08:41:39.039Z,93.57
2023-04-08T08:44:13.003Z,92.53
2023-04-08T08:46:46.895Z,91.64
2023-04-08T08:49:16.913Z,91.58
2023-04-08T08:51:49.336Z,91.43
2023-04-08T08:54:19.140Z,92.56
2023-04-08T08:56:49.255Z,92.18
2023-04-08T08:59:21.567Z,91.56
2023-04-08T09:01:51.547Z,90.02
2023-04-08T09:04:23.171Z,90.09
2023-04-08T09:07:11.255Z,89.02
2023-04-08T09:09:51.925Z,88.58
2023-04-08T09:12:22.163Z,89.67
2023-04-08T09:15:06.461Z,89.37
2023-04-08T09:17:38.425Z,90.42
2023-04-08T09:20:15.556Z,89.61
2023-04-08T09:23:03.425Z,88.51
2023-04-08T09:25:35.436Z,89.84
2023-04-08T09:28:05.719Z,88.89
2023-04-08T09:30:38.267Z,87.87
2023-04-08T09:33:08.678Z,87.29
2023-04-08T09:35:38.961Z,87.42
2023-04-08T09:38:08.784Z,87.71
2023-04-08T09:40:40.492Z,88.14
2023-04-08T09:43:14.680Z,88.19
2023-04-08T09:45:49.646Z,87.41
2023-04-08T09:48:26.212Z,87.71
2023-04-08T09:51:03.317Z,87.57
2023-04-08T09:53:37.155Z,87.15
2023-04-08T09:56:11.123Z,87.22
2023-04-08T09:58:44.625Z,87.58
2023-04-08T10:01:19.625Z,86.93
2023-04-08T10:03:53.724Z,87.29
2023-04-08T10:06:25.890Z,86.24
2023-04-08T10:08:55.716Z,85.19
2023-04-08T10:11:26.178Z,86.09
2023-04-08T10:13:56.333Z,85.17
2023-04-08T10:16:30.102Z,83.03
2023-04-08T10:19:00.207Z,83.02
2023-04-08T10:21:40.064Z,84.29
2023-04-08T10:24:11.210Z,85.36
2023-04-08T10:26:43.118Z,85.64
2023-04-08T10:29:46.573Z,84.60
2023-04-08T10:32:33.462Z,83.45
2023-04-08T10:35:04.510Z,84.13
2023-04-08T10:37:34.532Z,83.94
2023-04-08T10:40:04.391Z,83.72
2023-04-08T10:42:34.413Z,83.56
2023-04-08T10:45:05.077Z,79.25
2023-04-08T10:47:37.473Z,81.65
2023-04-08T10:50:16.124Z,82.88
2023-04-08T10:52:50.234Z,83.61
2023-04-08T10:55:25.411Z,84.69
2023-04-08T10:57:58.123Z,85.47
2023-04-08T11:00:37.288Z,86.46
2023-04-08T11:03:11.672Z,86.39
2023-04-08T11:05:43.848Z,86.04
2023-04-08T11:08:13.658Z,85.57
2023-04-08T11:10:45.138Z,86.02
2023-04-08T11:13:15.025Z,84.35
2023-04-08T11:15:45.686Z,83.95
2023-04-08T11:18:18.592Z,82.89
2023-04-08T11:20:48.374Z,82.14
2023-04-08T11:23:18.175Z,82.06
2023-04-08T11:25:49.667Z,82.40
2023-04-08T11:28:21.763Z,82.51
2023-04-08T11:30:51.862Z,81.79
2023-04-08T11:33:28.175Z,81.09
2023-04-08T11:35:57.968Z,80.15
2023-04-08T11:38:30.962Z,80.86
2023-04-08T11:41:02.680Z,81.23
2023-04-08T11:43:32.414Z,81.26
2023-04-08T11:46:02.659Z,80.96
2023-04-08T11:48:35.098Z,81.33
2023-04-08T11:51:09.380Z,80.99
2023-04-08T11:53:39.570Z,80.57
2023-04-08T11:56:22.562Z,79.70
2023-04-08T11:58:52.608Z,80.40
2023-04-08T12:01:23.843Z,80.16
2023-04-08T12:04:00.331Z,81.10
2023-04-08T12:06:31.913Z,81.47
2023-04-08T12:09:01.750Z,81.90
2023-04-08T12:11:31.565Z,82.02
2023-04-08T12:14:01.311Z,81.60
2023-04-08T12:16:31.134Z,81.20
2023-04-08T12:19:03.552Z,81.24
2023-04-08T12:21:34.060Z,82.13
2023-04-08T12:24:03.827Z,81.90
2023-04-08T12:26:33.593Z,81.51
2023-04-08T12:29:03.330Z,81.17
2023-04-08T12:31:33.167Z,80.29
2023-04-08T12:34:06.997Z,80.79
2023-04-08T12:36:36.788Z,80.58
2023-04-08T12:39:06.789Z,81.31
2023-04-08T12:41:36.607Z,81.42
2023-04-08T12:44:06.786Z,81.62
2023-04-08T12:46:36.642Z,83.41
2023-04-08T13:05:05.870Z,81.76
2023-04-08T13:10:56.865Z,82.11
2023-04-08T13:13:26.828Z,81.81
2023-04-08T13:15:56.764Z,81.73
2023-04-08T13:18:26.521Z,82.04
2023-04-08T13:20:59.063Z,80.54
2023-04-08T13:23:28.827Z,80.78
2023-04-08T13:25:58.578Z,80.58
2023-04-08T13:28:28.444Z,80.95
2023-04-08T13:30:58.450Z,80.75
2023-04-08T13:33:28.195Z,82.92
2023-04-08T13:36:00.644Z,84.12
2023-04-08T13:38:30.943Z,84.62
2023-04-08T13:41:00.711Z,83.74
2023-04-08T13:43:31.097Z,83.01
2023-04-08T13:46:01.082Z,82.45
2023-04-08T13:48:31.021Z,81.95
2023-04-08T13:51:03.667Z,82.19
2023-04-08T13:53:33.583Z,82.77
2023-04-08T13:56:03.320Z,82.94
2023-04-08T13:58:33.147Z,82.51
2023-04-08T14:01:02.892Z,83.22
2023-04-08T14:03:32.696Z,83.23
2023-04-08T14:06:04.995Z,82.74
2023-04-08T14:08:34.775Z,82.43
2023-04-08T14:11:04.521Z,82.68
2023-04-08T14:13:34.739Z,82.48
2023-04-08T14:16:04.561Z,83.66
2023-04-08T14:18:34.281Z,84.24
2023-04-08T14:21:07.575Z,83.00
2023-04-08T14:23:37.312Z,82.50
2023-04-08T14:26:07.107Z,82.38
2023-04-08T14:28:36.847Z,81.91
2023-04-08T14:31:06.812Z,82.17
2023-04-08T14:33:36.983Z,82.89
2023-04-08T14:36:09.991Z,83.19
2023-04-08T14:38:39.747Z,83.64
2023-04-08T14:41:09.528Z,82.67
2023-04-08T14:43:39.259Z,82.43
2023-04-08T14:46:09.257Z,82.05
2023-04-08T14:48:39.051Z,81.37
2023-04-08T14:51:11.471Z,81.15
2023-04-08T14:53:41.422Z,80.77
2023-04-08T14:56:11.588Z,80.35
2023-04-08T14:58:41.401Z,80.02
2023-04-08T15:01:11.699Z,79.31
2023-04-08T15:03:41.613Z,80.25
2023-04-08T15:06:17.084Z,80.93
2023-04-08T15:08:46.873Z,81.30
2023-04-08T15:11:16.811Z,80.81
2023-04-08T15:13:46.872Z,81.58
2023-04-08T15:16:16.878Z,81.33
2023-04-08T15:18:46.837Z,80.93
2023-04-08T15:21:19.192Z,80.48
2023-04-08T15:23:49.050Z,80.23
2023-04-08T15:26:18.841Z,80.64
2023-04-08T15:28:49.372Z,80.36
2023-04-08T15:31:19.727Z,80.53
2023-04-08T15:33:49.970Z,80.14
2023-04-08T15:36:22.800Z,80.25
2023-04-08T15:38:53.158Z,81.18
2023-04-08T15:41:24.076Z,80.97
2023-04-08T15:43:55.229Z,81.38
2023-04-08T15:46:25.036Z,80.97
2023-04-08T15:48:55.098Z,81.23
2023-04-08T15:51:27.962Z,81.68
2023-04-08T15:53:57.710Z,82.63
2023-04-08T15:56:29.571Z,83.55
2023-04-08T15:58:59.414Z,83.64
2023-04-08T16:01:29.253Z,83.78
2023-04-08T16:03:59.137Z,83.76
2023-04-08T16:06:31.575Z,84.09
2023-04-08T16:09:01.447Z,84.04
2023-04-08T16:11:31.315Z,84.78
2023-04-08T16:14:01.065Z,85.06
2023-04-08T16:16:31.192Z,84.71
2023-04-08T16:19:02.434Z,84.52
2023-04-08T16:21:34.846Z,84.30
2023-04-08T16:24:05.394Z,84.47
2023-04-08T16:26:35.372Z,85.09
2023-04-08T16:29:05.151Z,84.87
2023-04-08T16:31:34.932Z,85.98
2023-04-08T16:34:05.209Z,85.77
2023-04-08T16:36:37.784Z,85.51
2023-04-08T16:39:07.726Z,85.46
2023-04-08T16:41:37.474Z,86.03
2023-04-08T16:44:07.328Z,85.94
2023-04-08T16:46:37.167Z,85.71
2023-04-08T16:49:06.917Z,86.11
2023-04-08T16:51:39.241Z,85.02
2023-04-08T16:54:08.974Z,85.13
2023-04-08T16:56:44.403Z,84.57
2023-04-08T16:59:14.593Z,84.00
2023-04-08T17:01:44.440Z,83.51
2023-04-08T17:04:14.253Z,84.10
2023-04-08T17:06:47.241Z,83.93
2023-04-08T17:09:16.977Z,84.07
2023-04-08T17:11:46.913Z,83.91
2023-04-08T17:14:16.694Z,84.37
2023-04-08T17:16:46.693Z,84.72
2023-04-08T17:19:16.849Z,85.22
2023-04-08T17:21:49.242Z,84.95
2023-04-08T17:24:19.054Z,84.86
2023-04-08T17:26:49.462Z,84.92
2023-04-08T17:29:19.176Z,84.62
2023-04-08T17:31:48.951Z,84.82
2023-04-08T17:34:18.850Z,84.36
2023-04-08T17:36:51.461Z,83.65
2023-04-08T17:39:21.885Z,84.24
2023-04-08T17:41:51.650Z,84.19
2023-04-08T17:44:21.925Z,84.85
2023-04-08T17:46:51.668Z,84.85
2023-04-08T17:49:21.604Z,85.23
2023-04-08T17:51:54.420Z,84.91
2023-04-08T17:54:24.524Z,85.28
2023-04-08T17:56:54.252Z,85.63
2023-04-08T17:59:24.122Z,84.87
2023-04-08T18:01:54.496Z,84.66
2023-04-08T18:04:24.583Z,84.24
2023-04-08T18:06:57.326Z,83.88
2023-04-08T18:09:27.149Z,84.59
2023-04-08T18:11:56.900Z,84.54
2023-04-08T18:14:26.778Z,84.63
2023-04-08T18:16:56.663Z,83.96
2023-04-08T18:19:27.229Z,83.91
2023-04-08T18:21:59.690Z,83.18
2023-04-08T18:24:29.444Z,84.14
2023-04-08T18:27:04.505Z,84.12
2023-04-08T18:29:34.769Z,84.22
2023-04-08T18:32:04.637Z,84.24
2023-04-08T18:34:34.612Z,84.19
2023-04-08T18:37:07.507Z,83.72
2023-04-08T18:39:37.487Z,83.79
2023-04-08T18:42:07.428Z,83.38
2023-04-08T18:44:37.203Z,83.22
2023-04-08T18:47:07.549Z,83.20
2023-04-08T18:49:38.841Z,83.70
2023-04-08T18:52:11.527Z,84.00
2023-04-08T18:54:41.303Z,84.82
2023-04-08T18:57:11.194Z,84.69
2023-04-08T18:59:40.962Z,85.23
2023-04-08T19:02:10.913Z,85.01
2023-04-08T19:04:41.051Z,84.25
2023-04-08T19:07:13.593Z,84.05
2023-04-08T19:09:43.746Z,84.30
2023-04-08T19:12:13.900Z,84.10
2023-04-08T19:14:43.848Z,84.21
2023-04-08T19:17:13.644Z,84.23
2023-04-08T19:19:43.644Z,84.29
2023-04-08T19:22:16.813Z,84.01
2023-04-08T19:24:46.805Z,83.78
2023-04-08T19:27:17.025Z,84.07
2023-04-08T19:29:47.020Z,84.38
2023-04-08T19:32:17.061Z,84.07
2023-04-08T19:34:47.268Z,84.66
2023-04-08T19:37:20.376Z,84.65
2023-04-08T19:39:50.541Z,84.18
2023-04-08T19:42:20.636Z,85.21
2023-04-08T19:44:50.962Z,85.11
2023-04-08T19:47:21.096Z,85.02
2023-04-08T19:49:51.128Z,85.16
2023-04-08T19:52:23.813Z,85.04
2023-04-08T19:54:54.170Z,85.37
2023-04-08T19:57:24.275Z,85.06
2023-04-08T19:59:56.197Z,85.29
2023-04-08T20:02:26.081Z,85.58
2023-04-08T20:04:56.437Z,85.79
2023-04-08T20:07:29.040Z,86.06
2023-04-08T20:09:59.525Z,85.66
2023-04-08T20:12:30.596Z,85.65
2023-04-08T20:15:01.646Z,85.19
2023-04-08T20:17:31.945Z,84.61
2023-04-08T20:20:02.134Z,85.06
2023-04-08T20:22:34.628Z,84.93
2023-04-08T20:25:05.698Z,84.66
2023-04-08T20:27:36.573Z,85.22
2023-04-08T20:30:07.472Z,85.83
2023-04-08T20:32:37.491Z,85.97
2023-04-08T20:35:08.058Z,85.77
2023-04-08T20:37:40.878Z,85.15
2023-04-08T20:40:12.513Z,85.59
2023-04-08T20:42:42.723Z,85.88
2023-04-08T20:45:13.899Z,85.41
2023-04-08T20:47:44.875Z,85.56
2023-04-08T20:50:15.436Z,85.76
2023-04-08T20:52:48.164Z,85.35
2023-04-08T20:55:18.119Z,86.08
2023-04-08T20:57:48.173Z,86.14
2023-04-08T21:00:18.560Z,85.96
2023-04-08T21:02:48.653Z,86.11
2023-04-08T21:05:18.745Z,85.83
2023-04-08T21:07:51.301Z,85.47
2023-04-08T21:10:21.431Z,85.95
2023-04-08T21:12:51.313Z,86.03
2023-04-08T21:15:22.083Z,86.36
2023-04-08T21:17:51.916Z,86.62
2023-04-08T21:20:21.777Z,87.27
2023-04-08T21:22:54.179Z,87.23
2023-04-08T21:25:24.994Z,87.30
2023-04-08T21:27:54.739Z,88.30
2023-04-08T21:30:25.505Z,87.31
2023-04-08T21:33:01.916Z,87.95
2023-04-08T21:35:33.698Z,88.34
2023-04-08T21:38:06.885Z,88.31
2023-04-08T21:40:37.048Z,88.74
2023-04-08T21:43:07.368Z,88.50
2023-04-08T21:45:37.453Z,88.29
2023-04-08T21:48:07.967Z,88.04
2023-04-08T21:50:41.966Z,88.37
2023-04-08T21:53:15.056Z,87.49
2023-04-08T21:55:48.095Z,88.05
2023-04-08T21:58:18.279Z,89.16
2023-04-08T22:00:49.659Z,89.67
2023-04-08T22:03:20.042Z,89.50
2023-04-08T22:05:49.956Z,90.36
2023-04-08T22:08:23.287Z,90.24
2023-04-08T22:10:54.354Z,90.78
2023-04-08T22:13:24.306Z,90.68
2023-04-08T22:15:54.370Z,91.25
2023-04-08T22:18:24.410Z,91.75
2023-04-08T22:20:54.539Z,92.52
2023-04-08T22:23:27.276Z,91.87
2023-04-08T22:25:57.319Z,91.39
2023-04-08T22:28:27.505Z,91.52
2023-04-08T22:30:57.691Z,90.54
2023-04-08T22:33:27.999Z,90.44
2023-04-08T22:35:59.884Z,91.03
2023-04-08T22:38:32.847Z,91.79
2023-04-08T22:41:02.699Z,91.60
2023-04-08T22:43:33.805Z,91.42
2023-04-08T22:46:03.834Z,92.40
2023-04-08T22:48:33.860Z,83.54
2023-04-08T22:51:04.358Z,84.31
2023-04-08T22:53:37.312Z,87.00
2023-04-08T22:56:08.088Z,88.75
2023-04-08T22:58:38.641Z,89.65
2023-04-08T23:01:14.552Z,89.77
2023-04-08T23:03:45.257Z,90.07
2023-04-08T23:06:15.473Z,89.09
2023-04-08T23:08:48.313Z,88.47
2023-04-08T23:11:18.439Z,88.94
2023-04-08T23:13:48.679Z,90.18
2023-04-08T23:16:25.455Z,90.61
2023-04-08T23:18:55.907Z,91.18
2023-04-08T23:21:27.414Z,91.07
2023-04-08T23:24:00.416Z,90.02
2023-04-08T23:26:31.468Z,89.70
2023-04-08T23:29:01.955Z,91.37
2023-04-08T23:31:32.475Z,91.70
2023-04-08T23:34:02.693Z,91.82
2023-04-08T23:36:32.976Z,92.54
2023-04-08T23:39:06.683Z,92.79
2023-04-08T23:41:37.179Z,92.79
2023-04-08T23:44:08.028Z,92.90
2023-04-08T23:46:38.892Z,89.80
2023-04-08T23:49:09.051Z,88.76
2023-04-08T23:51:39.581Z,91.93
2023-04-08T23:54:13.572Z,92.40
2023-04-08T23:56:44.766Z,91.03
2023-04-08T23:59:16.687Z,93.31
